sensor_id;sensor_type;location;lat;lon;timestamp;P1;durP1;ratioP1;P2;durP2;ratioP2
36593;SDS011;22603;47.900;8.146;2023-03-31T00:02:40;9.07;;;3.03;;
36593;SDS011;22603;47.900;8.146;2023-03-31T00:05:27;9.53;;;2.60;;
36593;SDS011;22603;47.900;8.146;2023-03-31T00:08:17;6.83;;;2.60;;
36593;SDS011;22603;47.900;8.146;2023-03-31T00:11:05;10.13;;;3.03;;
36593;SDS011;22603;47.900;8.146;2023-03-31T00:13:52;7.30;;;2.80;;
36593;SDS011;22603;47.900;8.146;2023-03-31T00:16:39;13.70;;;2.90;;
36593;SDS011;22603;47.900;8.146;2023-03-31T00:19:30;7.17;;;2.57;;
36593;SDS011;22603;47.900;8.146;2023-03-31T00:22:18;10.10;;;2.47;;
36593;SDS011;22603;47.900;8.146;2023-03-31T00:25:07;14.10;;;3.10;;
36593;SDS011;22603;47.900;8.146;2023-03-31T00:27:55;9.00;;;2.90;;
36593;SDS011;22603;47.900;8.146;2023-03-31T00:30:42;7.60;;;2.23;;
36593;SDS011;22603;47.900;8.146;2023-03-31T00:33:30;10.53;;;2.83;;
36593;SDS011;22603;47.900;8.146;2023-03-31T00:36:19;8.63;;;2.43;;
36593;SDS011;22603;47.900;8.146;2023-03-31T00:39:11;6.50;;;2.30;;
36593;SDS011;22603;47.900;8.146;2023-03-31T00:41:58;11.83;;;2.67;;
36593;SDS011;22603;47.900;8.146;2023-03-31T00:48:13;8.20;;;2.70;;
36593;SDS011;22603;47.900;8.146;2023-03-31T00:51:04;6.23;;;2.03;;
36593;SDS011;22603;47.900;8.146;2023-03-31T00:53:55;11.50;;;2.37;;
36593;SDS011;22603;47.900;8.146;2023-03-31T00:56:46;8.80;;;2.33;;
36593;SDS011;22603;47.900;8.146;2023-03-31T00:59:40;7.30;;;2.30;;
36593;SDS011;22603;47.900;8.146;2023-03-31T01:02:31;8.37;;;2.50;;
36593;SDS011;22603;47.900;8.146;2023-03-31T01:05:19;5.53;;;2.10;;
36593;SDS011;22603;47.900;8.146;2023-03-31T01:08:08;7.20;;;2.30;;
36593;SDS011;22603;47.900;8.146;2023-03-31T01:10:59;7.73;;;2.40;;
36593;SDS011;22603;47.900;8.146;2023-03-31T01:13:50;9.07;;;2.30;;
36593;SDS011;22603;47.900;8.146;2023-03-31T01:16:43;8.60;;;2.83;;
36593;SDS011;22603;47.900;8.146;2023-03-31T01:19:34;14.07;;;2.47;;
36593;SDS011;22603;47.900;8.146;2023-03-31T01:26:14;7.57;;;2.67;;
36593;SDS011;22603;47.900;8.146;2023-03-31T01:29:39;8.33;;;2.40;;
36593;SDS011;22603;47.900;8.146;2023-03-31T01:32:55;7.77;;;2.70;;
36593;SDS011;22603;47.900;8.146;2023-03-31T01:36:34;5.17;;;2.20;;
36593;SDS011;22603;47.900;8.146;2023-03-31T01:39:57;5.20;;;2.27;;
36593;SDS011;22603;47.900;8.146;2023-03-31T01:42:53;5.77;;;2.10;;
36593;SDS011;22603;47.900;8.146;2023-03-31T01:45:48;4.60;;;2.17;;
36593;SDS011;22603;47.900;8.146;2023-03-31T01:48:45;6.57;;;2.43;;
36593;SDS011;22603;47.900;8.146;2023-03-31T01:51:41;7.73;;;2.50;;
36593;SDS011;22603;47.900;8.146;2023-03-31T01:54:35;7.90;;;2.67;;
36593;SDS011;22603;47.900;8.146;2023-03-31T01:57:28;9.67;;;2.40;;
36593;SDS011;22603;47.900;8.146;2023-03-31T02:00:19;7.83;;;2.40;;
36593;SDS011;22603;47.900;8.146;2023-03-31T02:03:14;9.60;;;2.40;;
36593;SDS011;22603;47.900;8.146;2023-03-31T02:06:07;8.03;;;2.53;;
36593;SDS011;22603;47.900;8.146;2023-03-31T02:08:59;9.00;;;2.83;;
36593;SDS011;22603;47.900;8.146;2023-03-31T02:11:50;7.57;;;2.73;;
36593;SDS011;22603;47.900;8.146;2023-03-31T02:14:42;7.90;;;2.67;;
36593;SDS011;22603;47.900;8.146;2023-03-31T02:17:35;7.80;;;2.70;;
36593;SDS011;22603;47.900;8.146;2023-03-31T02:20:26;7.30;;;2.57;;
36593;SDS011;22603;47.900;8.146;2023-03-31T02:23:19;7.87;;;3.00;;
36593;SDS011;22603;47.900;8.146;2023-03-31T02:26:11;9.03;;;2.90;;
36593;SDS011;22603;47.900;8.146;2023-03-31T02:29:01;7.93;;;2.70;;
36593;SDS011;22603;47.900;8.146;2023-03-31T02:31:51;8.43;;;2.87;;
36593;SDS011;22603;47.900;8.146;2023-03-31T02:34:44;8.13;;;2.73;;
36593;SDS011;22603;47.900;8.146;2023-03-31T02:37:33;8.77;;;3.00;;
36593;SDS011;22603;47.900;8.146;2023-03-31T02:40:22;11.97;;;3.00;;
36593;SDS011;22603;47.900;8.146;2023-03-31T02:43:12;12.40;;;3.50;;
36593;SDS011;22603;47.900;8.146;2023-03-31T02:45:59;7.97;;;2.77;;
36593;SDS011;22603;47.900;8.146;2023-03-31T02:48:47;7.53;;;2.60;;
36593;SDS011;22603;47.900;8.146;2023-03-31T02:51:48;8.77;;;3.10;;
36593;SDS011;22603;47.900;8.146;2023-03-31T03:01:17;10.87;;;3.10;;
36593;SDS011;22603;47.900;8.146;2023-03-31T03:04:26;14.57;;;3.33;;
36593;SDS011;22603;47.900;8.146;2023-03-31T03:07:31;6.60;;;2.40;;
36593;SDS011;22603;47.900;8.146;2023-03-31T03:10:30;7.13;;;2.60;;
36593;SDS011;22603;47.900;8.146;2023-03-31T03:13:30;11.30;;;2.70;;
36593;SDS011;22603;47.900;8.146;2023-03-31T03:16:25;7.07;;;3.17;;
36593;SDS011;22603;47.900;8.146;2023-03-31T03:19:30;11.03;;;3.00;;
36593;SDS011;22603;47.900;8.146;2023-03-31T03:22:19;9.10;;;3.07;;
36593;SDS011;22603;47.900;8.146;2023-03-31T03:25:13;7.67;;;2.87;;
36593;SDS011;22603;47.900;8.146;2023-03-31T03:30:45;9.37;;;2.90;;
36593;SDS011;22603;47.900;8.146;2023-03-31T03:33:32;6.17;;;2.33;;
36593;SDS011;22603;47.900;8.146;2023-03-31T03:36:21;9.30;;;2.87;;
36593;SDS011;22603;47.900;8.146;2023-03-31T03:39:08;9.43;;;2.77;;
36593;SDS011;22603;47.900;8.146;2023-03-31T03:44:47;10.43;;;3.47;;
36593;SDS011;22603;47.900;8.146;2023-03-31T03:47:35;12.30;;;2.60;;
36593;SDS011;22603;47.900;8.146;2023-03-31T03:50:22;6.57;;;2.30;;
36593;SDS011;22603;47.900;8.146;2023-03-31T03:53:10;6.87;;;2.70;;
36593;SDS011;22603;47.900;8.146;2023-03-31T03:55:57;6.77;;;2.50;;
36593;SDS011;22603;47.900;8.146;2023-03-31T03:58:45;6.57;;;2.80;;
36593;SDS011;22603;47.900;8.146;2023-03-31T04:01:32;6.33;;;2.50;;
36593;SDS011;22603;47.900;8.146;2023-03-31T04:04:20;9.37;;;2.37;;
36593;SDS011;22603;47.900;8.146;2023-03-31T04:07:06;9.53;;;2.80;;
36593;SDS011;22603;47.900;8.146;2023-03-31T04:09:55;12.07;;;3.13;;
36593;SDS011;22603;47.900;8.146;2023-03-31T04:12:41;6.23;;;2.80;;
36593;SDS011;22603;47.900;8.146;2023-03-31T04:15:29;12.80;;;2.83;;
36593;SDS011;22603;47.900;8.146;2023-03-31T04:18:15;7.00;;;2.03;;
36593;SDS011;22603;47.900;8.146;2023-03-31T04:21:07;8.90;;;2.10;;
36593;SDS011;22603;47.900;8.146;2023-03-31T04:23:56;5.73;;;2.30;;
36593;SDS011;22603;47.900;8.146;2023-03-31T04:26:47;8.60;;;2.80;;
36593;SDS011;22603;47.900;8.146;2023-03-31T04:29:35;6.50;;;2.57;;
36593;SDS011;22603;47.900;8.146;2023-03-31T04:32:22;7.33;;;2.60;;
36593;SDS011;22603;47.900;8.146;2023-03-31T04:35:09;8.30;;;2.90;;
36593;SDS011;22603;47.900;8.146;2023-03-31T04:37:59;4.83;;;1.97;;
36593;SDS011;22603;47.900;8.146;2023-03-31T04:40:47;9.63;;;2.90;;
36593;SDS011;22603;47.900;8.146;2023-03-31T04:43:37;10.00;;;2.83;;
36593;SDS011;22603;47.900;8.146;2023-03-31T04:46:24;11.10;;;3.20;;
36593;SDS011;22603;47.900;8.146;2023-03-31T04:49:12;15.17;;;3.20;;
36593;SDS011;22603;47.900;8.146;2023-03-31T04:51:59;9.80;;;2.73;;
36593;SDS011;22603;47.900;8.146;2023-03-31T04:54:46;11.47;;;3.10;;
36593;SDS011;22603;47.900;8.146;2023-03-31T04:57:33;8.27;;;2.77;;
36593;SDS011;22603;47.900;8.146;2023-03-31T05:00:22;9.77;;;3.13;;
36593;SDS011;22603;47.900;8.146;2023-03-31T05:03:10;9.13;;;2.90;;
36593;SDS011;22603;47.900;8.146;2023-03-31T05:05:58;6.47;;;3.10;;
36593;SDS011;22603;47.900;8.146;2023-03-31T05:08:45;10.43;;;2.97;;
36593;SDS011;22603;47.900;8.146;2023-03-31T05:11:31;9.90;;;2.97;;
36593;SDS011;22603;47.900;8.146;2023-03-31T05:14:18;9.27;;;3.00;;
36593;SDS011;22603;47.900;8.146;2023-03-31T05:17:07;8.17;;;3.30;;
36593;SDS011;22603;47.900;8.146;2023-03-31T05:19:53;8.53;;;3.03;;
36593;SDS011;22603;47.900;8.146;2023-03-31T05:22:41;10.47;;;3.00;;
36593;SDS011;22603;47.900;8.146;2023-03-31T05:25:28;6.80;;;2.43;;
36593;SDS011;22603;47.900;8.146;2023-03-31T05:28:17;8.67;;;2.40;;
36593;SDS011;22603;47.900;8.146;2023-03-31T05:31:04;12.53;;;2.93;;
36593;SDS011;22603;47.900;8.146;2023-03-31T05:33:53;7.23;;;2.93;;
36593;SDS011;22603;47.900;8.146;2023-03-31T05:36:40;9.77;;;2.60;;
36593;SDS011;22603;47.900;8.146;2023-03-31T05:39:28;7.47;;;2.70;;
36593;SDS011;22603;47.900;8.146;2023-03-31T05:42:17;8.63;;;2.80;;
36593;SDS011;22603;47.900;8.146;2023-03-31T05:45:06;7.73;;;2.80;;
36593;SDS011;22603;47.900;8.146;2023-03-31T05:47:53;9.47;;;2.67;;
36593;SDS011;22603;47.900;8.146;2023-03-31T05:50:42;8.70;;;2.27;;
36593;SDS011;22603;47.900;8.146;2023-03-31T05:53:29;9.50;;;2.73;;
36593;SDS011;22603;47.900;8.146;2023-03-31T05:56:16;6.43;;;2.60;;
36593;SDS011;22603;47.900;8.146;2023-03-31T05:59:02;10.47;;;3.07;;
36593;SDS011;22603;47.900;8.146;2023-03-31T06:01:49;8.47;;;2.60;;
36593;SDS011;22603;47.900;8.146;2023-03-31T06:04:36;9.63;;;2.80;;
36593;SDS011;22603;47.900;8.146;2023-03-31T06:07:25;9.00;;;3.00;;
36593;SDS011;22603;47.900;8.146;2023-03-31T06:10:12;9.30;;;3.37;;
36593;SDS011;22603;47.900;8.146;2023-03-31T06:12:59;10.80;;;3.03;;
36593;SDS011;22603;47.900;8.146;2023-03-31T06:15:51;12.63;;;3.30;;
36593;SDS011;22603;47.900;8.146;2023-03-31T06:18:39;7.47;;;2.70;;
36593;SDS011;22603;47.900;8.146;2023-03-31T06:21:27;8.33;;;2.93;;
36593;SDS011;22603;47.900;8.146;2023-03-31T06:24:15;8.97;;;2.83;;
36593;SDS011;22603;47.900;8.146;2023-03-31T06:27:02;10.10;;;2.70;;
36593;SDS011;22603;47.900;8.146;2023-03-31T06:29:52;7.00;;;1.97;;
36593;SDS011;22603;47.900;8.146;2023-03-31T06:32:40;5.40;;;1.60;;
36593;SDS011;22603;47.900;8.146;2023-03-31T06:35:27;5.50;;;1.40;;
36593;SDS011;22603;47.900;8.146;2023-03-31T06:38:14;2.53;;;1.00;;
36593;SDS011;22603;47.900;8.146;2023-03-31T06:41:02;6.13;;;0.67;;
36593;SDS011;22603;47.900;8.146;2023-03-31T06:43:50;1.03;;;0.60;;
36593;SDS011;22603;47.900;8.146;2023-03-31T06:46:37;2.27;;;0.93;;
36593;SDS011;22603;47.900;8.146;2023-03-31T06:49:25;2.33;;;0.30;;
36593;SDS011;22603;47.900;8.146;2023-03-31T06:52:11;0.80;;;0.50;;
36593;SDS011;22603;47.900;8.146;2023-03-31T06:54:58;1.33;;;0.57;;
36593;SDS011;22603;47.900;8.146;2023-03-31T06:57:46;0.97;;;0.70;;
36593;SDS011;22603;47.900;8.146;2023-03-31T07:00:33;2.47;;;0.70;;
36593;SDS011;22603;47.900;8.146;2023-03-31T07:03:20;3.17;;;1.10;;
36593;SDS011;22603;47.900;8.146;2023-03-31T07:06:09;1.10;;;0.80;;
36593;SDS011;22603;47.900;8.146;2023-03-31T07:08:56;1.40;;;0.67;;
36593;SDS011;22603;47.900;8.146;2023-03-31T07:11:43;3.90;;;0.77;;
36593;SDS011;22603;47.900;8.146;2023-03-31T07:14:31;4.10;;;1.10;;
36593;SDS011;22603;47.900;8.146;2023-03-31T07:17:18;3.13;;;1.13;;
36593;SDS011;22603;47.900;8.146;2023-03-31T07:20:06;2.03;;;0.70;;
36593;SDS011;22603;47.900;8.146;2023-03-31T07:22:56;3.90;;;1.00;;
36593;SDS011;22603;47.900;8.146;2023-03-31T07:25:43;2.97;;;0.90;;
36593;SDS011;22603;47.900;8.146;2023-03-31T07:28:32;3.93;;;0.93;;
36593;SDS011;22603;47.900;8.146;2023-03-31T07:31:21;1.80;;;0.97;;
36593;SDS011;22603;47.900;8.146;2023-03-31T07:34:08;2.50;;;1.07;;
36593;SDS011;22603;47.900;8.146;2023-03-31T07:36:55;2.60;;;1.00;;
36593;SDS011;22603;47.900;8.146;2023-03-31T07:39:42;3.50;;;1.20;;
36593;SDS011;22603;47.900;8.146;2023-03-31T07:42:32;2.60;;;1.40;;
36593;SDS011;22603;47.900;8.146;2023-03-31T07:45:23;5.73;;;1.17;;
36593;SDS011;22603;47.900;8.146;2023-03-31T07:48:13;2.47;;;1.20;;
36593;SDS011;22603;47.900;8.146;2023-03-31T07:51:00;5.03;;;1.27;;
36593;SDS011;22603;47.900;8.146;2023-03-31T07:53:47;4.37;;;1.23;;
36593;SDS011;22603;47.900;8.146;2023-03-31T07:56:36;4.07;;;1.27;;
36593;SDS011;22603;47.900;8.146;2023-03-31T07:59:23;3.23;;;1.00;;
36593;SDS011;22603;47.900;8.146;2023-03-31T08:02:10;3.70;;;1.20;;
36593;SDS011;22603;47.900;8.146;2023-03-31T08:05:01;4.80;;;1.40;;
36593;SDS011;22603;47.900;8.146;2023-03-31T08:07:48;3.30;;;0.90;;
36593;SDS011;22603;47.900;8.146;2023-03-31T08:10:36;2.07;;;1.00;;
36593;SDS011;22603;47.900;8.146;2023-03-31T08:13:26;3.63;;;1.03;;
36593;SDS011;22603;47.900;8.146;2023-03-31T08:16:13;6.10;;;1.30;;
36593;SDS011;22603;47.900;8.146;2023-03-31T08:19:00;6.77;;;1.33;;
36593;SDS011;22603;47.900;8.146;2023-03-31T08:21:48;7.37;;;0.90;;
36593;SDS011;22603;47.900;8.146;2023-03-31T08:24:36;4.70;;;1.40;;
36593;SDS011;22603;47.900;8.146;2023-03-31T08:27:23;2.53;;;1.00;;
36593;SDS011;22603;47.900;8.146;2023-03-31T08:30:11;4.43;;;1.10;;
36593;SDS011;22603;47.900;8.146;2023-03-31T08:32:58;6.10;;;1.20;;
36593;SDS011;22603;47.900;8.146;2023-03-31T08:35:46;2.78;;;0.93;;
36593;SDS011;22603;47.900;8.146;2023-03-31T08:38:34;3.45;;;0.77;;
36593;SDS011;22603;47.900;8.146;2023-03-31T08:41:26;2.65;;;0.95;;
36593;SDS011;22603;47.900;8.146;2023-03-31T08:44:25;4.97;;;1.10;;
36593;SDS011;22603;47.900;8.146;2023-03-31T08:47:18;2.50;;;0.90;;
36593;SDS011;22603;47.900;8.146;2023-03-31T08:50:10;4.47;;;1.17;;
36593;SDS011;22603;47.900;8.146;2023-03-31T08:53:02;5.07;;;1.20;;
36593;SDS011;22603;47.900;8.146;2023-03-31T08:55:52;8.30;;;1.20;;
36593;SDS011;22603;47.900;8.146;2023-03-31T08:58:41;4.73;;;1.13;;
36593;SDS011;22603;47.900;8.146;2023-03-31T09:01:34;4.63;;;0.90;;
36593;SDS011;22603;47.900;8.146;2023-03-31T09:04:49;5.20;;;1.00;;
36593;SDS011;22603;47.900;8.146;2023-03-31T09:07:49;4.33;;;0.97;;
36593;SDS011;22603;47.900;8.146;2023-03-31T09:10:46;2.35;;;1.10;;
36593;SDS011;22603;47.900;8.146;2023-03-31T09:13:46;6.47;;;1.27;;
36593;SDS011;22603;47.900;8.146;2023-03-31T09:16:43;5.47;;;1.17;;
36593;SDS011;22603;47.900;8.146;2023-03-31T09:19:38;1.60;;;0.80;;
36593;SDS011;22603;47.900;8.146;2023-03-31T09:22:30;7.17;;;1.23;;
36593;SDS011;22603;47.900;8.146;2023-03-31T09:25:20;5.00;;;0.93;;
36593;SDS011;22603;47.900;8.146;2023-03-31T09:28:18;3.85;;;0.90;;
36593;SDS011;22603;47.900;8.146;2023-03-31T09:31:10;4.30;;;1.10;;
36593;SDS011;22603;47.900;8.146;2023-03-31T09:34:00;6.32;;;0.95;;
36593;SDS011;22603;47.900;8.146;2023-03-31T09:36:55;2.47;;;1.00;;
36593;SDS011;22603;47.900;8.146;2023-03-31T09:39:42;2.50;;;0.80;;
36593;SDS011;22603;47.900;8.146;2023-03-31T09:42:31;4.70;;;0.73;;
36593;SDS011;22603;47.900;8.146;2023-03-31T09:45:20;3.17;;;1.13;;
36593;SDS011;22603;47.900;8.146;2023-03-31T09:48:11;3.63;;;0.88;;
36593;SDS011;22603;47.900;8.146;2023-03-31T09:51:01;3.77;;;0.90;;
36593;SDS011;22603;47.900;8.146;2023-03-31T09:53:51;4.90;;;1.23;;
36593;SDS011;22603;47.900;8.146;2023-03-31T09:56:45;5.05;;;1.30;;
36593;SDS011;22603;47.900;8.146;2023-03-31T09:59:38;1.95;;;0.77;;
36593;SDS011;22603;47.900;8.146;2023-03-31T10:02:34;5.03;;;1.17;;
36593;SDS011;22603;47.900;8.146;2023-03-31T10:05:26;5.03;;;0.90;;
36593;SDS011;22603;47.900;8.146;2023-03-31T10:08:20;5.03;;;0.90;;
36593;SDS011;22603;47.900;8.146;2023-03-31T10:11:10;3.00;;;0.90;;
36593;SDS011;22603;47.900;8.146;2023-03-31T10:13:58;3.43;;;1.00;;
36593;SDS011;22603;47.900;8.146;2023-03-31T10:16:49;6.27;;;0.83;;
36593;SDS011;22603;47.900;8.146;2023-03-31T10:19:47;3.58;;;0.70;;
36593;SDS011;22603;47.900;8.146;2023-03-31T10:22:37;5.05;;;1.00;;
36593;SDS011;22603;47.900;8.146;2023-03-31T10:25:30;7.13;;;1.25;;
36593;SDS011;22603;47.900;8.146;2023-03-31T10:28:19;1.08;;;0.50;;
36593;SDS011;22603;47.900;8.146;2023-03-31T10:31:08;3.72;;;0.88;;
36593;SDS011;22603;47.900;8.146;2023-03-31T10:33:55;5.38;;;1.02;;
36593;SDS011;22603;47.900;8.146;2023-03-31T10:36:46;5.00;;;1.27;;
36593;SDS011;22603;47.900;8.146;2023-03-31T10:39:35;6.15;;;1.42;;
36593;SDS011;22603;47.900;8.146;2023-03-31T10:42:24;4.68;;;0.90;;
36593;SDS011;22603;47.900;8.146;2023-03-31T10:45:16;5.60;;;1.13;;
36593;SDS011;22603;47.900;8.146;2023-03-31T10:48:26;8.23;;;1.13;;
36593;SDS011;22603;47.900;8.146;2023-03-31T10:51:15;7.03;;;1.20;;
36593;SDS011;22603;47.900;8.146;2023-03-31T10:54:04;5.17;;;1.10;;
36593;SDS011;22603;47.900;8.146;2023-03-31T10:56:55;7.00;;;0.93;;
36593;SDS011;22603;47.900;8.146;2023-03-31T10:59:49;3.93;;;1.13;;
36593;SDS011;22603;47.900;8.146;2023-03-31T11:02:54;3.57;;;0.83;;
36593;SDS011;22603;47.900;8.146;2023-03-31T11:06:01;5.80;;;0.90;;
36593;SDS011;22603;47.900;8.146;2023-03-31T11:08:58;2.53;;;0.70;;
36593;SDS011;22603;47.900;8.146;2023-03-31T11:11:59;3.33;;;1.13;;
36593;SDS011;22603;47.900;8.146;2023-03-31T11:14:58;4.30;;;1.02;;
36593;SDS011;22603;47.900;8.146;2023-03-31T11:17:58;7.67;;;1.10;;
36593;SDS011;22603;47.900;8.146;2023-03-31T11:20:55;2.27;;;0.80;;
36593;SDS011;22603;47.900;8.146;2023-03-31T11:23:51;6.23;;;0.83;;
36593;SDS011;22603;47.900;8.146;2023-03-31T11:26:49;1.90;;;0.73;;
36593;SDS011;22603;47.900;8.146;2023-03-31T11:29:45;9.97;;;1.40;;
36593;SDS011;22603;47.900;8.146;2023-03-31T11:32:44;5.55;;;1.00;;
36593;SDS011;22603;47.900;8.146;2023-03-31T11:35:42;4.10;;;1.08;;
36593;SDS011;22603;47.900;8.146;2023-03-31T11:38:46;3.50;;;1.20;;
36593;SDS011;22603;47.900;8.146;2023-03-31T11:41:49;6.83;;;1.10;;
36593;SDS011;22603;47.900;8.146;2023-03-31T11:44:39;5.30;;;1.07;;
36593;SDS011;22603;47.900;8.146;2023-03-31T11:47:31;3.83;;;1.10;;
36593;SDS011;22603;47.900;8.146;2023-03-31T11:50:23;7.03;;;1.10;;
36593;SDS011;22603;47.900;8.146;2023-03-31T11:53:14;6.43;;;1.13;;
36593;SDS011;22603;47.900;8.146;2023-03-31T11:56:05;4.83;;;1.30;;
36593;SDS011;22603;47.900;8.146;2023-03-31T11:58:56;3.63;;;1.27;;
36593;SDS011;22603;47.900;8.146;2023-03-31T12:01:47;4.40;;;0.93;;
36593;SDS011;22603;47.900;8.146;2023-03-31T12:04:42;5.17;;;1.07;;
36593;SDS011;22603;47.900;8.146;2023-03-31T12:07:37;4.03;;;0.67;;
36593;SDS011;22603;47.900;8.146;2023-03-31T12:10:31;2.70;;;0.70;;
36593;SDS011;22603;47.900;8.146;2023-03-31T12:13:30;2.93;;;0.50;;
36593;SDS011;22603;47.900;8.146;2023-03-31T12:16:23;0.93;;;0.47;;
36593;SDS011;22603;47.900;8.146;2023-03-31T12:19:17;2.33;;;0.73;;
36593;SDS011;22603;47.900;8.146;2023-03-31T12:22:09;1.80;;;0.50;;
36593;SDS011;22603;47.900;8.146;2023-03-31T12:25:00;0.47;;;0.40;;
36593;SDS011;22603;47.900;8.146;2023-03-31T12:27:48;0.47;;;0.30;;
36593;SDS011;22603;47.900;8.146;2023-03-31T12:30:36;3.43;;;0.90;;
36593;SDS011;22603;47.900;8.146;2023-03-31T12:33:28;1.60;;;0.47;;
36593;SDS011;22603;47.900;8.146;2023-03-31T12:36:21;0.60;;;0.50;;
36593;SDS011;22603;47.900;8.146;2023-03-31T12:39:19;3.07;;;0.63;;
36593;SDS011;22603;47.900;8.146;2023-03-31T12:42:22;1.03;;;0.60;;
36593;SDS011;22603;47.900;8.146;2023-03-31T12:45:32;2.03;;;0.60;;
36593;SDS011;22603;47.900;8.146;2023-03-31T12:48:32;4.97;;;0.83;;
36593;SDS011;22603;47.900;8.146;2023-03-31T12:51:40;2.67;;;0.80;;
36593;SDS011;22603;47.900;8.146;2023-03-31T12:54:51;2.30;;;0.80;;
36593;SDS011;22603;47.900;8.146;2023-03-31T13:01:20;0.67;;;0.47;;
36593;SDS011;22603;47.900;8.146;2023-03-31T13:04:16;1.90;;;0.63;;
36593;SDS011;22603;47.900;8.146;2023-03-31T13:07:07;2.03;;;0.63;;
36593;SDS011;22603;47.900;8.146;2023-03-31T13:10:23;7.47;;;1.07;;
36593;SDS011;22603;47.900;8.146;2023-03-31T13:13:13;2.60;;;0.67;;
36593;SDS011;22603;47.900;8.146;2023-03-31T13:16:02;2.37;;;0.73;;
36593;SDS011;22603;47.900;8.146;2023-03-31T13:18:53;4.17;;;0.90;;
36593;SDS011;22603;47.900;8.146;2023-03-31T13:24:45;3.83;;;0.70;;
36593;SDS011;22603;47.900;8.146;2023-03-31T13:27:33;3.43;;;0.80;;
36593;SDS011;22603;47.900;8.146;2023-03-31T13:33:48;3.23;;;0.90;;
36593;SDS011;22603;47.900;8.146;2023-03-31T13:36:49;2.53;;;0.70;;
36593;SDS011;22603;47.900;8.146;2023-03-31T13:40:05;4.83;;;0.73;;
36593;SDS011;22603;47.900;8.146;2023-03-31T13:43:07;4.63;;;0.90;;
36593;SDS011;22603;47.900;8.146;2023-03-31T13:46:30;4.37;;;1.00;;
36593;SDS011;22603;47.900;8.146;2023-03-31T13:52:54;4.67;;;1.03;;
36593;SDS011;22603;47.900;8.146;2023-03-31T13:55:59;0.70;;;0.40;;
36593;SDS011;22603;47.900;8.146;2023-03-31T13:59:05;0.23;;;0.20;;
36593;SDS011;22603;47.900;8.146;2023-03-31T14:02:26;0.30;;;0.30;;
36593;SDS011;22603;47.900;8.146;2023-03-31T14:05:36;0.53;;;0.40;;
36593;SDS011;22603;47.900;8.146;2023-03-31T14:08:32;1.03;;;0.40;;
36593;SDS011;22603;47.900;8.146;2023-03-31T14:11:31;1.13;;;0.60;;
36593;SDS011;22603;47.900;8.146;2023-03-31T14:14:18;0.40;;;0.40;;
36593;SDS011;22603;47.900;8.146;2023-03-31T14:17:05;0.67;;;0.30;;
36593;SDS011;22603;47.900;8.146;2023-03-31T14:23:09;0.60;;;0.47;;
36593;SDS011;22603;47.900;8.146;2023-03-31T14:26:08;0.77;;;0.30;;
36593;SDS011;22603;47.900;8.146;2023-03-31T14:29:04;1.33;;;0.50;;
36593;SDS011;22603;47.900;8.146;2023-03-31T14:32:04;4.00;;;0.43;;
36593;SDS011;22603;47.900;8.146;2023-03-31T14:35:01;0.20;;;0.20;;
36593;SDS011;22603;47.900;8.146;2023-03-31T14:38:01;0.47;;;0.30;;
36593;SDS011;22603;47.900;8.146;2023-03-31T14:40:51;0.30;;;0.30;;
36593;SDS011;22603;47.900;8.146;2023-03-31T14:43:44;0.23;;;0.23;;
36593;SDS011;22603;47.900;8.146;2023-03-31T14:46:35;0.87;;;0.30;;
36593;SDS011;22603;47.900;8.146;2023-03-31T14:49:25;0.40;;;0.40;;
36593;SDS011;22603;47.900;8.146;2023-03-31T14:52:14;0.30;;;0.30;;
36593;SDS011;22603;47.900;8.146;2023-03-31T14:55:04;0.70;;;0.30;;
36593;SDS011;22603;47.900;8.146;2023-03-31T14:57:52;2.13;;;0.60;;
36593;SDS011;22603;47.900;8.146;2023-03-31T15:00:42;3.30;;;0.40;;
36593;SDS011;22603;47.900;8.146;2023-03-31T15:03:32;1.03;;;0.47;;
36593;SDS011;22603;47.900;8.146;2023-03-31T15:06:22;0.60;;;0.40;;
36593;SDS011;22603;47.900;8.146;2023-03-31T15:09:12;1.40;;;0.47;;
36593;SDS011;22603;47.900;8.146;2023-03-31T15:12:04;2.43;;;0.50;;
36593;SDS011;22603;47.900;8.146;2023-03-31T15:14:54;2.03;;;0.47;;
36593;SDS011;22603;47.900;8.146;2023-03-31T15:17:45;3.60;;;0.73;;
36593;SDS011;22603;47.900;8.146;2023-03-31T15:20:34;3.27;;;0.60;;
36593;SDS011;22603;47.900;8.146;2023-03-31T15:23:23;3.17;;;0.80;;
36593;SDS011;22603;47.900;8.146;2023-03-31T15:26:12;7.17;;;0.73;;
36593;SDS011;22603;47.900;8.146;2023-03-31T15:29:10;7.77;;;0.80;;
36593;SDS011;22603;47.900;8.146;2023-03-31T15:32:01;4.30;;;0.73;;
36593;SDS011;22603;47.900;8.146;2023-03-31T15:34:54;6.03;;;0.67;;
36593;SDS011;22603;47.900;8.146;2023-03-31T15:37:56;3.43;;;0.83;;
36593;SDS011;22603;47.900;8.146;2023-03-31T15:40:44;3.67;;;0.77;;
36593;SDS011;22603;47.900;8.146;2023-03-31T15:43:41;3.37;;;0.70;;
36593;SDS011;22603;47.900;8.146;2023-03-31T15:46:47;3.50;;;0.50;;
36593;SDS011;22603;47.900;8.146;2023-03-31T15:49:46;3.50;;;0.80;;
36593;SDS011;22603;47.900;8.146;2023-03-31T15:52:44;1.43;;;0.50;;
36593;SDS011;22603;47.900;8.146;2023-03-31T15:55:39;1.97;;;0.43;;
36593;SDS011;22603;47.900;8.146;2023-03-31T16:01:40;1.60;;;0.40;;
36593;SDS011;22603;47.900;8.146;2023-03-31T16:04:31;0.90;;;0.40;;
36593;SDS011;22603;47.900;8.146;2023-03-31T16:07:19;2.33;;;0.80;;
36593;SDS011;22603;47.900;8.146;2023-03-31T16:10:13;0.63;;;0.40;;
36593;SDS011;22603;47.900;8.146;2023-03-31T16:13:05;2.37;;;0.50;;
36593;SDS011;22603;47.900;8.146;2023-03-31T16:15:54;7.93;;;1.10;;
36593;SDS011;22603;47.900;8.146;2023-03-31T16:18:43;0.43;;;0.30;;
36593;SDS011;22603;47.900;8.146;2023-03-31T16:21:35;1.30;;;0.60;;
36593;SDS011;22603;47.900;8.146;2023-03-31T16:24:27;2.57;;;0.70;;
36593;SDS011;22603;47.900;8.146;2023-03-31T16:27:18;3.60;;;0.67;;
36593;SDS011;22603;47.900;8.146;2023-03-31T16:30:07;4.33;;;0.93;;
36593;SDS011;22603;47.900;8.146;2023-03-31T16:32:59;1.00;;;0.50;;
36593;SDS011;22603;47.900;8.146;2023-03-31T16:35:49;0.63;;;0.40;;
36593;SDS011;22603;47.900;8.146;2023-03-31T16:38:40;1.27;;;0.30;;
36593;SDS011;22603;47.900;8.146;2023-03-31T16:41:27;4.73;;;0.87;;
36593;SDS011;22603;47.900;8.146;2023-03-31T16:44:16;2.67;;;0.83;;
36593;SDS011;22603;47.900;8.146;2023-03-31T16:47:03;3.63;;;0.77;;
36593;SDS011;22603;47.900;8.146;2023-03-31T16:49:50;2.80;;;0.90;;
36593;SDS011;22603;47.900;8.146;2023-03-31T16:52:37;2.90;;;0.90;;
36593;SDS011;22603;47.900;8.146;2023-03-31T16:55:24;3.50;;;0.77;;
36593;SDS011;22603;47.900;8.146;2023-03-31T16:58:11;3.37;;;0.73;;
36593;SDS011;22603;47.900;8.146;2023-03-31T17:01:00;5.67;;;0.80;;
36593;SDS011;22603;47.900;8.146;2023-03-31T17:03:48;5.97;;;1.43;;
36593;SDS011;22603;47.900;8.146;2023-03-31T17:06:35;2.03;;;0.73;;
36593;SDS011;22603;47.900;8.146;2023-03-31T17:09:22;5.07;;;1.13;;
36593;SDS011;22603;47.900;8.146;2023-03-31T17:12:09;1.97;;;0.73;;
36593;SDS011;22603;47.900;8.146;2023-03-31T17:14:57;9.20;;;1.30;;
36593;SDS011;22603;47.900;8.146;2023-03-31T17:17:48;4.63;;;0.93;;
36593;SDS011;22603;47.900;8.146;2023-03-31T17:20:35;3.83;;;0.70;;
36593;SDS011;22603;47.900;8.146;2023-03-31T17:23:23;4.73;;;1.23;;
36593;SDS011;22603;47.900;8.146;2023-03-31T17:26:10;3.17;;;0.80;;
36593;SDS011;22603;47.900;8.146;2023-03-31T17:29:00;1.37;;;0.60;;
36593;SDS011;22603;47.900;8.146;2023-03-31T17:31:48;0.63;;;0.27;;
36593;SDS011;22603;47.900;8.146;2023-03-31T17:34:37;2.60;;;0.53;;
36593;SDS011;22603;47.900;8.146;2023-03-31T17:37:24;6.20;;;0.83;;
36593;SDS011;22603;47.900;8.146;2023-03-31T17:40:11;1.73;;;0.83;;
36593;SDS011;22603;47.900;8.146;2023-03-31T17:42:59;2.63;;;0.70;;
36593;SDS011;22603;47.900;8.146;2023-03-31T17:45:46;3.13;;;0.70;;
36593;SDS011;22603;47.900;8.146;2023-03-31T17:48:33;2.87;;;1.00;;
36593;SDS011;22603;47.900;8.146;2023-03-31T17:51:23;3.50;;;0.80;;
36593;SDS011;22603;47.900;8.146;2023-03-31T17:54:10;4.60;;;0.90;;